Barbourville, KY (40906)

8:15 PM EST on February 26, 2015 (GMT -0500)
liford's | Change Station
CLOSE
Current Station
Personal Weather Station
Location: Barbourville, KY
Elevation: 1066 ft
Nearby Weather Stations
Active Advisory: Special Statement Active Notice: Local Storm Report

Elev 1066 ft 36.84 °N, 83.85 °W | Updated 3 minutes ago

Partly Cloudy
Partly Cloudy
31.8 °F
Feels Like 32 °F
N
2.2
Wind Variable Wind from NNW

Today
High -- | Low -- °F
--% Chance of Precip.
Yesterday
High -- | Low -- °F
Precip. -- in
7:10 AM 6:26 PM
Waxing Gibbous, 64% visible
Pressure 30.15 in
Visibility 10.0 miles
Clouds Overcast 7000 ft
Windchill 32 °F
Dew Point 18 °F
Humidity 57%
Rainfall 0.35 in
Snow Depth Not available.
UV 0 out of 12
Pollen .50 out of 12
Air Quality Not available.
Flu Activity Not available.
METAR KLOZ 270053Z AUTO 32004KT 10SM OVC070 01/M09 A3012 RMK AO2 SLP208 T00061094

More Conditions Fewer Conditions

Pressure 30.15 in
Visibility 10.0 miles
Clouds Overcast 7000 ft
Windchill 32 °F
Dew Point 18 °F
Humidity 57%
Rainfall 0.35 in
Snow Depth Not available.
UV 0 out of 12
Pollen .50 out of 12
Air Quality Not available.
Flu Activity Not available.
METAR KLOZ 270053Z AUTO 32004KT 10SM OVC070 01/M09 A3012 RMK AO2 SLP208 T00061094

More Conditions Fewer Conditions

10-Day Weather Forecast

Almanac

Astronomy

Feb. 26, 2015 Rise Set
Actual Time
Civil Twilight
Nautical Twilight
Astronomical Twilight
Moon
Length of Visible Light
Length of Day
Tomorrow will be .
, % of the Moon is Illuminated

Today's Extremes

State Highs State Lows

Community

WunderPhotos

Upload Photos

1,800,553 photos uploaded!

WunderBlogs® & News

Nearby

Air Quality

  Air Quality AQ Index Pollutant
Not available.

Snow Depth

Station Depth Elevation

Earthquake Activity

City Distance Mag. Time & Date
Minimum magnitude displayed is 2.5.

Coastal Water Temperatures

Place Temperature

Nearby Weather Stations

Special Statement
Statement as of 4:50 PM EST on February 26, 2015

... Light snow showers possible this evening and tonight...

Expect some snow showers to move into the area this evening and
continue into the night. Accumulations from this will be less
than a half an inch... with most places seeing little more than a
dusting. Arctic air pours into eastern Kentucky later tonight
with temperatures dropping into the teens for most of the area...
though some single digits will be possible for locations along and
north of Interstate 64. Be on the look out for potential slick
spots on area roads tonight as wet pavement will be prone to
freezing due to the Arctic air.


Shallenberger/greif